Time;durP1;ratioP1;P1;durP2;ratioP2;P2;SDS_P1;SDS_P2;PMS_P1;PMS_P2;Temp;Humidity;BMP_temperature;BMP_pressure;BME280_temperature;BME280_humidity;BME280_pressure;Samples;Min_cycle;Max_cycle;Signal;HPM_P1;HPM_P2
2022/01/26 00:06:47;;;;;;;58.97;25.20;;;3.00;99.90;;;;;;5075156;28;20053;-67
2022/01/26 00:09:13;;;;;;;64.03;27.40;;;3.00;99.90;;;;;;5091107;28;20393;-67
2022/01/26 00:11:40;;;;;;;64.88;26.75;;;3.00;99.90;;;;;;5093169;28;20052;-70
2022/01/26 00:14:10;;;;;;;65.97;28.13;;;3.00;99.90;;;;;;5087946;28;20485;-68
2022/01/26 00:16:39;;;;;;;71.18;27.80;;;3.00;99.90;;;;;;5073831;28;20060;-69
2022/01/26 00:19:07;;;;;;;67.95;28.50;;;3.00;99.90;;;;;;5073971;28;20400;-69
2022/01/26 00:21:56;;;;;;;67.68;27.88;;;3.00;99.90;;;;;;5073777;28;20075;-67
2022/01/26 00:29:20;;;;;;;66.68;28.35;;;3.00;99.90;;;;;;5090009;28;20080;-68
2022/01/26 00:40:41;;;;;;;72.80;27.98;;;2.90;99.90;;;;;;5079341;28;20032;-69
2022/01/26 00:43:30;;;;;;;63.55;26.17;;;2.90;99.90;;;;;;5089177;28;20044;-68
2022/01/26 00:45:57;;;;;;;60.22;24.88;;;3.00;99.90;;;;;;5111391;27;20449;-67
2022/01/26 00:48:24;;;;;;;67.55;27.67;;;2.80;99.90;;;;;;5080601;28;20052;-69
2022/01/26 00:50:53;;;;;;;68.53;27.48;;;2.90;99.90;;;;;;5072989;28;20048;-67
2022/01/26 00:53:23;;;;;;;67.65;27.70;;;2.90;99.90;;;;;;5056575;28;20045;-71
2022/01/26 00:55:49;;;;;;;67.60;27.00;;;2.90;99.90;;;;;;5073039;28;20047;-69
2022/01/26 00:58:15;;;;;;;71.28;26.83;;;2.80;99.90;;;;;;5088402;28;20349;-68
2022/01/26 01:00:40;;;;;;;63.15;26.67;;;2.80;99.90;;;;;;5090678;28;20051;-67
2022/01/26 01:03:06;;;;;;;70.45;28.90;;;2.80;99.90;;;;;;5092040;28;20460;-68
2022/01/26 01:05:41;;;;;;;68.90;29.38;;;2.80;99.90;;;;;;5093087;28;20040;-68
2022/01/26 01:08:15;;;;;;;71.30;28.63;;;2.80;99.90;;;;;;5091393;28;20384;-70
2022/01/26 01:10:44;;;;;;;69.43;28.25;;;2.80;99.90;;;;;;5090816;28;20522;-68
2022/01/26 01:13:15;;;;;;;66.13;27.80;;;2.80;99.90;;;;;;5076721;28;20067;-67
2022/01/26 01:15:41;;;;;;;69.63;28.38;;;2.80;99.90;;;;;;5073983;28;20102;-67
2022/01/26 01:18:18;;;;;;;67.85;28.23;;;2.80;99.90;;;;;;5081674;28;20472;-67
2022/01/26 01:23:31;;;;;;;71.85;29.20;;;2.80;99.90;;;;;;5092338;28;20449;-68
2022/01/26 01:31:28;;;;;;;77.25;32.95;;;2.70;99.90;;;;;;5092627;28;20051;-67
2022/01/26 01:33:54;;;;;;;61.10;26.73;;;2.70;99.90;;;;;;5093580;28;20040;-67
2022/01/26 01:36:21;;;;;;;61.55;26.55;;;2.80;99.90;;;;;;5091457;28;20044;-69
2022/01/26 01:38:47;;;;;;;66.68;27.52;;;2.80;99.90;;;;;;5088354;28;20040;-69
2022/01/26 01:41:13;;;;;;;68.88;28.40;;;2.70;99.90;;;;;;5092181;28;20549;-69
2022/01/26 01:43:38;;;;;;;61.88;25.10;;;2.70;99.90;;;;;;5055873;28;20048;-69
2022/01/26 01:46:05;;;;;;;73.57;29.83;;;2.70;99.90;;;;;;5077105;28;20183;-68
2022/01/26 01:48:32;;;;;;;67.70;27.05;;;2.70;99.90;;;;;;5080190;28;20127;-68
2022/01/26 01:51:05;;;;;;;63.30;26.90;;;2.70;99.90;;;;;;5073308;28;20108;-68
2022/01/26 01:53:37;;;;;;;66.35;25.70;;;2.70;99.90;;;;;;5055012;28;20064;-71
2022/01/26 01:56:04;;;;;;;64.18;24.92;;;2.80;99.90;;;;;;5072158;28;20089;-68
2022/01/26 01:58:30;;;;;;;66.97;28.20;;;2.70;99.90;;;;;;5067381;28;20052;-70
2022/01/26 02:00:56;;;;;;;62.20;25.85;;;2.60;99.90;;;;;;5088855;28;20129;-69
2022/01/26 02:03:22;;;;;;;67.93;26.60;;;2.60;99.90;;;;;;5079862;28;20182;-69
2022/01/26 02:05:48;;;;;;;72.90;28.70;;;2.60;99.90;;;;;;5073311;28;20060;-68
2022/01/26 02:08:13;;;;;;;68.43;26.45;;;2.60;99.90;;;;;;5079287;28;20040;-70
2022/01/26 02:10:39;;;;;;;70.63;25.73;;;2.60;99.90;;;;;;5090213;28;20048;-69
2022/01/26 02:13:16;;;;;;;68.82;26.45;;;2.60;99.90;;;;;;5090788;28;20476;-67
2022/01/26 02:15:53;;;;;;;65.72;25.63;;;2.60;99.90;;;;;;5072787;28;20119;-72
2022/01/26 02:18:35;;;;;;;72.30;26.35;;;2.60;99.90;;;;;;5079163;28;20531;-66
2022/01/26 02:51:05;;;;;;;69.82;27.83;;;2.50;99.90;;;;;;5086239;28;20044;-68
2022/01/26 02:56:10;;;;;;;71.18;25.50;;;2.40;99.90;;;;;;5076284;28;20048;-68
2022/01/26 03:06:47;;;;;;;70.78;27.25;;;2.40;99.90;;;;;;5095624;28;20056;-67
2022/01/26 03:09:16;;;;;;;70.88;26.58;;;2.40;99.90;;;;;;5094161;28;20429;-67
2022/01/26 03:11:44;;;;;;;69.88;27.23;;;2.40;99.90;;;;;;5086588;28;20082;-67
2022/01/26 03:14:43;;;;;;;71.70;26.27;;;2.40;99.90;;;;;;5094985;28;20091;-68
2022/01/26 03:16:58;;;;;;;68.68;26.10;;;2.40;99.90;;;;;;5093866;28;20048;-68
2022/01/26 03:19:40;;;;;;;73.18;26.67;;;2.40;99.90;;;;;;5094073;28;20061;-68
2022/01/26 03:28:15;;;;;;;70.03;28.48;;;2.40;99.90;;;;;;5075769;28;20048;-68
2022/01/26 03:30:29;;;;;;;69.47;26.27;;;2.30;99.90;;;;;;5075372;28;20052;-66
2022/01/26 03:33:11;;;;;;;65.43;25.80;;;2.40;99.90;;;;;;5128629;27;20048;-67
2022/01/26 03:35:47;;;;;;;72.72;27.10;;;2.30;99.90;;;;;;5095844;28;20044;-69
2022/01/26 03:43:51;;;;;;;67.75;27.05;;;2.40;99.90;;;;;;5074224;28;20048;-67
2022/01/26 03:46:17;;;;;;;72.65;27.50;;;2.30;99.90;;;;;;5085963;28;20109;-69
2022/01/26 03:48:42;;;;;;;68.65;26.42;;;2.30;99.90;;;;;;5094236;28;20131;-68
2022/01/26 03:51:08;;;;;;;72.60;27.05;;;2.30;99.90;;;;;;5084895;28;20142;-69
2022/01/26 03:53:33;;;;;;;68.70;25.75;;;2.30;99.90;;;;;;5089609;28;20503;-67
2022/01/26 03:55:59;;;;;;;79.25;27.48;;;2.30;99.90;;;;;;5081741;28;20056;-68
2022/01/26 03:58:24;;;;;;;72.03;26.92;;;2.30;99.90;;;;;;5074081;28;20055;-68
2022/01/26 04:00:50;;;;;;;67.20;26.73;;;2.30;99.90;;;;;;5077241;28;20052;-67
2022/01/26 04:03:16;;;;;;;68.68;26.08;;;2.30;99.90;;;;;;5094478;28;20428;-69
2022/01/26 04:05:42;;;;;;;75.60;28.35;;;2.40;99.90;;;;;;5093884;28;20056;-70
2022/01/26 04:08:14;;;;;;;68.78;27.60;;;2.30;99.90;;;;;;5094322;28;20384;-67
2022/01/26 04:10:57;;;;;;;74.50;27.80;;;2.30;99.90;;;;;;5089571;28;20051;-68
2022/01/26 04:13:22;;;;;;;70.90;26.25;;;2.30;99.90;;;;;;5095560;28;20440;-68
2022/01/26 04:15:48;;;;;;;71.18;26.10;;;2.40;99.90;;;;;;5093531;28;20048;-69
2022/01/26 04:18:20;;;;;;;71.00;27.48;;;2.30;99.90;;;;;;5093757;28;20052;-68
2022/01/26 04:20:49;;;;;;;65.40;26.20;;;2.30;99.90;;;;;;5091126;28;20127;-69
2022/01/26 04:23:33;;;;;;;70.55;27.20;;;2.30;99.90;;;;;;5073561;28;20052;-68
2022/01/26 04:25:59;;;;;;;68.53;27.90;;;2.30;99.90;;;;;;5077778;28;20536;-68
2022/01/26 04:28:31;;;;;;;72.90;27.20;;;2.40;99.90;;;;;;5073699;28;20163;-67
2022/01/26 04:30:57;;;;;;;;;;;2.40;99.90;;;;;;5060395;28;20469;-67
2022/01/26 04:33:22;;;;;;;68.45;25.73;;;2.30;99.90;;;;;;5093926;28;19926;-66
2022/01/26 04:35:48;;;;;;;72.85;27.73;;;2.30;99.90;;;;;;5094346;28;20491;-67
2022/01/26 04:38:34;;;;;;;69.97;26.42;;;2.30;99.90;;;;;;5093953;28;20048;-70
2022/01/26 04:41:17;;;;;;;70.85;26.27;;;2.30;99.90;;;;;;5116130;27;20110;-69
2022/01/26 04:43:45;;;;;;;69.40;26.27;;;2.40;99.90;;;;;;5073996;28;20045;-69
2022/01/26 04:46:11;;;;;;;65.57;25.42;;;2.30;99.90;;;;;;5083829;28;20119;-67
2022/01/26 04:48:37;;;;;;;69.97;25.35;;;2.30;99.90;;;;;;5093445;28;20132;-69
2022/01/26 04:51:02;;;;;;;68.95;25.63;;;2.40;99.90;;;;;;5090830;28;20097;-68
2022/01/26 04:53:28;;;;;;;67.05;25.95;;;2.30;99.90;;;;;;5073355;28;20552;-67
2022/01/26 04:55:53;;;;;;;74.18;26.05;;;2.50;99.90;;;;;;5072615;28;20055;-67
2022/01/26 04:58:19;;;;;;;71.38;26.05;;;2.30;99.90;;;;;;5057131;28;20457;-68
2022/01/26 05:00:45;;;;;;;62.38;24.48;;;2.40;99.90;;;;;;5074966;28;20083;-67
2022/01/26 05:03:10;;;;;;;70.38;25.25;;;2.40;99.90;;;;;;5074332;28;20098;-68
2022/01/26 05:05:36;;;;;;;65.75;26.05;;;2.40;99.90;;;;;;5092280;28;20559;-68
2022/01/26 05:08:02;;;;;;;72.72;26.08;;;2.30;99.90;;;;;;5079322;28;20405;-69
2022/01/26 05:10:28;;;;;;;69.28;26.25;;;2.30;99.90;;;;;;5078186;28;20127;-67
2022/01/26 05:12:54;;;;;;;67.47;25.73;;;2.30;99.90;;;;;;5072031;28;20136;-68
2022/01/26 05:15:22;;;;;;;64.70;24.85;;;2.30;99.90;;;;;;5072411;28;20510;-68
2022/01/26 05:17:48;;;;;;;71.75;26.58;;;2.30;99.90;;;;;;5084902;28;20102;-68
2022/01/26 05:20:14;;;;;;;62.22;23.65;;;2.30;99.90;;;;;;5089382;28;20079;-67
2022/01/26 05:22:41;;;;;;;60.35;23.05;;;2.30;99.90;;;;;;5092734;28;20443;-66
2022/01/26 05:25:07;;;;;;;63.63;23.88;;;2.30;99.90;;;;;;5091531;28;20040;-67
2022/01/26 05:27:33;;;;;;;72.72;25.27;;;2.30;99.90;;;;;;5091245;28;20113;-67
2022/01/26 05:29:59;;;;;;;61.97;24.42;;;2.30;99.90;;;;;;5087858;28;20059;-70
2022/01/26 05:32:25;;;;;;;68.45;24.92;;;2.30;99.90;;;;;;5088234;28;20126;-67
2022/01/26 05:34:51;;;;;;;65.10;24.67;;;2.30;99.90;;;;;;5080554;28;20105;-67
2022/01/26 05:37:17;;;;;;;63.47;24.20;;;2.30;99.90;;;;;;5079649;28;20048;-71
2022/01/26 05:39:43;;;;;;;65.10;23.55;;;2.30;99.90;;;;;;5091596;28;20086;-68
2022/01/26 05:42:09;;;;;;;61.10;24.10;;;2.20;99.90;;;;;;5074666;28;20075;-67
2022/01/26 05:44:35;;;;;;;70.00;24.45;;;2.30;99.90;;;;;;5075927;28;20101;-68
2022/01/26 05:47:00;;;;;;;67.00;23.73;;;2.30;99.90;;;;;;5072004;28;20079;-68
2022/01/26 05:49:26;;;;;;;66.30;24.70;;;2.30;99.90;;;;;;5083185;28;20131;-68
2022/01/26 05:51:52;;;;;;;59.95;22.30;;;2.30;99.90;;;;;;5091476;28;20040;-68
2022/01/26 05:54:18;;;;;;;62.42;23.10;;;2.30;99.90;;;;;;5083585;28;20052;-68
2022/01/26 05:56:47;;;;;;;65.28;23.25;;;2.30;99.90;;;;;;5071384;28;20089;-71
2022/01/26 05:59:20;;;;;;;55.83;21.60;;;2.30;99.90;;;;;;5084781;28;20075;-67
2022/01/26 06:01:49;;;;;;;63.33;23.30;;;2.30;99.90;;;;;;5087425;28;20044;-69
2022/01/26 06:04:15;;;;;;;63.40;23.08;;;2.30;99.90;;;;;;5114990;27;20060;-69
2022/01/26 06:06:41;;;;;;;64.40;23.33;;;2.30;99.90;;;;;;5078651;28;20062;-69
2022/01/26 06:09:07;;;;;;;57.15;22.30;;;2.30;99.90;;;;;;5085201;28;20469;-70
2022/01/26 06:11:32;;;;;;;61.42;24.50;;;2.30;99.90;;;;;;5074361;28;20059;-69
2022/01/26 06:13:58;;;;;;;58.20;21.05;;;2.30;99.90;;;;;;5079826;28;20080;-68
2022/01/26 06:16:24;;;;;;;57.35;22.65;;;2.30;99.90;;;;;;5091136;28;20056;-69
2022/01/26 06:18:50;;;;;;;56.60;22.83;;;2.30;99.90;;;;;;5091780;28;20056;-67
2022/01/26 06:21:16;;;;;;;59.63;22.10;;;2.30;99.90;;;;;;5090448;28;20063;-68
2022/01/26 06:23:42;;;;;;;53.40;21.98;;;2.20;99.90;;;;;;5089813;28;20128;-70
2022/01/26 06:26:08;;;;;;;58.22;21.52;;;2.20;99.90;;;;;;5090854;28;20119;-68
2022/01/26 06:28:34;;;;;;;54.83;20.88;;;2.40;99.90;;;;;;5075038;28;20143;-69
2022/01/26 06:31:10;;;;;;;58.55;21.27;;;2.30;99.90;;;;;;5077285;28;20087;-69
2022/01/26 06:33:38;;;;;;;55.50;21.30;;;2.30;99.90;;;;;;5080188;28;20077;-71
2022/01/26 06:36:04;;;;;;;50.55;19.13;;;2.30;99.90;;;;;;5089183;28;20079;-68
2022/01/26 06:38:30;;;;;;;53.50;19.33;;;2.30;99.90;;;;;;5095249;28;20119;-69
2022/01/26 06:40:58;;;;;;;52.70;20.02;;;2.30;99.90;;;;;;5094993;28;20055;-68
2022/01/26 06:43:28;;;;;;;55.72;20.08;;;2.30;99.90;;;;;;5094387;28;20051;-67
2022/01/26 06:46:07;;;;;;;52.35;19.98;;;2.20;99.90;;;;;;5081781;28;20119;-68
2022/01/26 06:51:12;;;;;;;51.63;19.63;;;2.40;99.90;;;;;;5094061;28;20060;-69
2022/01/26 06:53:39;;;;;;;53.15;19.98;;;2.30;99.90;;;;;;5074042;28;20059;-69
2022/01/26 06:56:07;;;;;;;55.85;20.65;;;2.30;99.90;;;;;;5095056;28;20055;-69
2022/01/26 06:58:33;;;;;;;55.97;22.27;;;2.30;99.90;;;;;;5094324;28;20051;-68
2022/01/26 07:00:59;;;;;;;49.60;19.50;;;2.30;99.90;;;;;;5089541;28;20052;-67
2022/01/26 07:03:25;;;;;;;51.85;19.63;;;2.30;99.90;;;;;;5095076;28;20048;-67
2022/01/26 07:05:50;;;;;;;51.10;19.42;;;2.40;99.90;;;;;;5078191;28;20044;-69
2022/01/26 07:08:16;;;;;;;48.45;19.77;;;2.30;99.90;;;;;;5095632;28;20434;-70
2022/01/26 07:10:44;;;;;;;48.83;19.40;;;2.30;99.90;;;;;;5086496;28;20404;-68
2022/01/26 07:13:10;;;;;;;52.95;20.83;;;2.30;99.90;;;;;;5075070;28;20222;-70
2022/01/26 07:21:37;;;;;;;55.95;22.65;;;2.40;99.90;;;;;;5094533;28;20126;-67
2022/01/26 07:23:57;;;;;;;53.45;21.25;;;2.40;99.90;;;;;;5092080;28;20078;-68
2022/01/26 07:26:27;;;;;;;49.88;19.83;;;2.30;99.90;;;;;;5094560;28;20048;-69
2022/01/26 07:28:53;;;;;;;56.08;21.95;;;2.40;99.90;;;;;;5095169;28;20059;-70
2022/01/26 07:31:19;;;;;;;54.65;21.30;;;2.40;99.90;;;;;;5094519;28;20048;-68
2022/01/26 07:33:44;;;;;;;49.15;20.23;;;2.40;99.90;;;;;;5094518;28;20131;-71
2022/01/26 07:36:10;;;;;;;54.75;22.13;;;2.40;99.90;;;;;;5086275;28;20048;-68
2022/01/26 07:38:36;;;;;;;53.03;22.45;;;2.40;99.90;;;;;;5074475;28;20059;-69
2022/01/26 07:41:03;;;;;;;53.58;21.42;;;2.40;99.90;;;;;;5073497;28;20127;-69
2022/01/26 07:43:29;;;;;;;52.75;22.02;;;2.40;99.90;;;;;;5087154;28;20155;-69
2022/01/26 07:45:55;;;;;;;55.60;23.67;;;2.40;99.90;;;;;;5094741;28;20079;-70
2022/01/26 07:48:22;;;;;;;58.17;23.23;;;2.40;99.90;;;;;;5094432;28;20060;-69
2022/01/26 07:50:51;;;;;;;56.38;24.45;;;2.40;99.90;;;;;;5094866;28;20206;-68
2022/01/26 07:53:17;;;;;;;57.45;24.80;;;2.40;99.90;;;;;;5095619;28;20060;-68
2022/01/26 07:55:43;;;;;;;58.33;26.13;;;2.40;99.90;;;;;;5094080;28;20459;-69
2022/01/26 07:58:09;;;;;;;62.65;25.45;;;2.40;99.90;;;;;;5092973;28;20061;-69
2022/01/26 08:00:36;;;;;;;63.38;25.92;;;2.40;99.90;;;;;;5083205;28;20055;-68
2022/01/26 08:03:02;;;;;;;68.85;26.73;;;2.40;99.90;;;;;;5087531;28;20040;-67
2022/01/26 08:05:27;;;;;;;65.68;27.45;;;2.50;99.90;;;;;;5118047;27;20064;-69
2022/01/26 08:07:53;;;;;;;70.97;29.67;;;2.50;99.90;;;;;;5075000;28;20061;-68
2022/01/26 08:10:19;;;;;;;71.05;28.40;;;2.50;99.90;;;;;;5073927;28;20060;-68
2022/01/26 08:12:45;;;;;;;70.63;28.75;;;2.50;99.90;;;;;;5076780;28;20044;-68
2022/01/26 08:15:10;;;;;;;70.05;29.35;;;2.50;99.90;;;;;;5093396;28;20048;-68
2022/01/26 08:17:37;;;;;;;70.97;30.70;;;2.50;99.90;;;;;;5093615;28;20052;-68
2022/01/26 08:20:05;;;;;;;70.60;30.30;;;2.50;99.90;;;;;;5077176;28;20056;-70
2022/01/26 08:22:32;;;;;;;74.63;31.65;;;2.60;99.90;;;;;;5093651;28;20411;-68
2022/01/26 08:24:58;;;;;;;73.78;32.63;;;2.60;99.90;;;;;;5095299;28;20447;-70
2022/01/26 08:27:26;;;;;;;75.82;32.53;;;2.60;99.90;;;;;;5093387;28;20090;-67
2022/01/26 08:29:56;;;;;;;74.32;33.97;;;2.60;99.90;;;;;;5087054;28;20061;-68
2022/01/26 08:32:23;;;;;;;89.70;37.85;;;2.60;99.90;;;;;;5082949;28;20060;-69
2022/01/26 08:34:48;;;;;;;84.00;35.65;;;2.60;99.90;;;;;;5079029;28;20048;-68
2022/01/26 08:37:14;;;;;;;88.78;38.55;;;2.70;99.90;;;;;;5076261;28;20048;-69
2022/01/26 08:39:40;;;;;;;89.75;37.70;;;2.70;99.90;;;;;;5093343;28;20358;-69
2022/01/26 08:42:06;;;;;;;88.00;39.22;;;2.70;99.90;;;;;;5091979;28;20070;-68
2022/01/26 08:44:32;;;;;;;90.03;39.28;;;2.70;99.90;;;;;;5075393;28;20094;-70
2022/01/26 08:46:58;;;;;;;92.03;41.05;;;2.80;99.90;;;;;;5084123;28;20080;-70
2022/01/26 08:49:27;;;;;;;95.45;40.47;;;2.80;99.90;;;;;;5089881;28;20441;-72
2022/01/26 08:51:54;;;;;;;90.57;38.65;;;2.80;99.90;;;;;;5074543;28;20044;-70
2022/01/26 08:54:22;;;;;;;99.68;40.58;;;2.80;99.90;;;;;;5085806;28;20088;-68
2022/01/26 08:56:52;;;;;;;88.53;40.22;;;2.80;99.90;;;;;;5091863;28;20140;-70
2022/01/26 08:59:19;;;;;;;98.03;41.15;;;2.80;99.90;;;;;;5091758;28;20052;-70
2022/01/26 09:01:45;;;;;;;95.35;42.33;;;2.80;99.90;;;;;;5085213;28;20123;-69
2022/01/26 09:04:12;;;;;;;103.53;42.45;;;2.90;99.90;;;;;;5091237;28;20089;-68
2022/01/26 09:06:51;;;;;;;100.57;42.72;;;2.90;99.90;;;;;;5090266;28;20476;-68
2022/01/26 09:09:19;;;;;;;93.53;40.55;;;2.90;99.90;;;;;;5074145;28;20106;-69
2022/01/26 09:11:46;;;;;;;97.07;43.67;;;2.90;99.90;;;;;;5106251;28;20055;-69
2022/01/26 09:14:17;;;;;;;96.35;42.03;;;2.90;99.90;;;;;;5080362;28;20063;-69
2022/01/26 09:16:43;;;;;;;101.13;42.55;;;2.90;99.90;;;;;;5082430;28;20048;-69
2022/01/26 09:19:25;;;;;;;107.95;44.47;;;3.00;99.90;;;;;;5081095;28;20059;-68
2022/01/26 09:21:50;;;;;;;103.15;44.88;;;3.00;99.90;;;;;;5092859;28;20119;-70
2022/01/26 09:24:16;;;;;;;99.13;43.50;;;3.00;99.90;;;;;;5094563;28;20114;-71
2022/01/26 09:26:42;;;;;;;101.90;45.58;;;3.00;99.90;;;;;;5092515;28;20055;-69
2022/01/26 09:29:07;;;;;;;98.07;44.28;;;3.00;99.90;;;;;;5092587;28;20411;-69
2022/01/26 09:31:33;;;;;;;105.15;44.60;;;3.10;99.90;;;;;;5090072;28;20044;-70
2022/01/26 09:33:58;;;;;;;102.90;44.22;;;3.20;99.90;;;;;;5086744;28;20051;-68
2022/01/26 09:36:24;;;;;;;103.82;44.95;;;3.10;99.90;;;;;;5072269;28;20395;-69
2022/01/26 09:38:50;;;;;;;104.82;44.60;;;3.10;99.90;;;;;;5073259;28;20113;-70
2022/01/26 09:41:15;;;;;;;107.53;43.25;;;3.10;99.90;;;;;;5093158;28;20052;-68
2022/01/26 09:43:43;;;;;;;102.13;44.55;;;3.10;99.90;;;;;;5091316;28;20043;-68
2022/01/26 09:46:14;;;;;;;102.13;45.00;;;3.20;99.90;;;;;;5085237;28;20385;-68
2022/01/26 09:48:41;;;;;;;103.00;41.83;;;3.20;99.90;;;;;;5080939;28;20419;-69
2022/01/26 09:51:10;;;;;;;97.93;43.75;;;3.20;99.90;;;;;;5126262;27;20052;-68
2022/01/26 09:53:36;;;;;;;99.13;43.20;;;3.30;99.90;;;;;;5092173;28;20066;-68
2022/01/26 09:56:01;;;;;;;103.65;44.45;;;3.30;99.90;;;;;;5092159;28;20131;-71
2022/01/26 09:58:28;;;;;;;101.97;42.75;;;3.30;99.90;;;;;;5091447;28;20342;-68
2022/01/26 10:01:02;;;;;;;101.82;43.53;;;3.50;99.90;;;;;;5092124;28;20548;-69
2022/01/26 10:03:33;;;;;;;101.65;41.83;;;3.40;99.90;;;;;;5108694;27;20052;-70
2022/01/26 10:05:58;;;;;;;100.03;40.92;;;3.50;99.90;;;;;;5071839;28;20131;-70
2022/01/26 10:19:03;;;;;;;101.13;42.47;;;3.60;99.90;;;;;;5084181;28;20065;-70
2022/01/26 10:21:29;;;;;;;90.18;39.42;;;3.60;99.90;;;;;;5073146;28;20405;-72
2022/01/26 10:23:59;;;;;;;92.07;42.10;;;3.60;99.90;;;;;;5092165;28;20048;-69
2022/01/26 10:26:25;;;;;;;92.40;39.67;;;3.60;99.90;;;;;;5087845;28;20059;-70
2022/01/26 10:28:59;;;;;;;94.28;41.28;;;3.60;99.90;;;;;;5071433;28;20064;-69
2022/01/26 10:31:27;;;;;;;88.30;40.40;;;3.60;99.90;;;;;;5074224;28;20048;-70
2022/01/26 10:33:53;;;;;;;97.25;41.10;;;3.70;99.90;;;;;;5099207;28;20048;-68
2022/01/26 10:36:19;;;;;;;92.25;39.70;;;3.60;99.90;;;;;;5111754;28;20051;-68
2022/01/26 10:39:00;;;;;;;89.00;39.60;;;3.80;99.90;;;;;;5096905;28;20049;-67
2022/01/26 10:41:26;;;;;;;92.18;39.58;;;3.70;99.90;;;;;;5102760;28;20139;-69
2022/01/26 10:43:55;;;;;;;87.93;38.92;;;3.70;99.90;;;;;;5111670;28;20118;-69
2022/01/26 10:46:39;;;;;;;88.35;38.60;;;3.70;99.90;;;;;;5089057;28;20044;-66
2022/01/26 10:49:09;;;;;;;87.30;37.13;;;3.80;99.90;;;;;;5091814;28;20067;-67
2022/01/26 10:51:52;;;;;;;80.78;35.92;;;3.80;99.90;;;;;;5079195;28;20043;-68
2022/01/26 10:54:36;;;;;;;87.70;39.17;;;3.80;99.90;;;;;;5111994;28;20396;-69
2022/01/26 10:57:05;;;;;;;86.20;37.42;;;3.90;99.90;;;;;;5084293;28;20470;-67
2022/01/26 10:59:33;;;;;;;87.03;37.50;;;3.90;99.90;;;;;;5091639;28;20056;-68
2022/01/26 11:02:02;;;;;;;78.97;35.35;;;3.90;99.90;;;;;;5091456;28;20186;-68
2022/01/26 11:04:27;;;;;;;86.15;36.00;;;4.00;99.90;;;;;;5101239;28;20097;-69
2022/01/26 11:06:53;;;;;;;77.70;35.80;;;3.90;99.90;;;;;;5098423;28;20480;-69
2022/01/26 11:09:23;;;;;;;77.25;35.58;;;4.00;99.90;;;;;;5085168;28;20056;-68
2022/01/26 11:11:59;;;;;;;83.65;37.03;;;3.90;99.90;;;;;;5070588;28;20048;-69
2022/01/26 11:14:25;;;;;;;85.03;37.85;;;4.10;99.90;;;;;;5084239;28;20458;-69
2022/01/26 11:16:54;;;;;;;78.72;35.00;;;4.00;99.90;;;;;;5090958;28;20163;-68
2022/01/26 11:19:21;;;;;;;76.40;35.15;;;4.00;99.90;;;;;;5099736;28;20059;-68
2022/01/26 11:21:47;;;;;;;78.47;37.10;;;4.00;99.90;;;;;;5089751;28;20048;-67
2022/01/26 11:24:19;;;;;;;75.65;35.53;;;4.00;99.90;;;;;;5089793;28;20052;-67
2022/01/26 11:26:47;;;;;;;79.25;34.92;;;4.10;99.90;;;;;;5074027;28;20053;-68
2022/01/26 11:29:26;;;;;;;78.50;35.88;;;4.00;99.90;;;;;;5088797;28;20055;-67
2022/01/26 11:32:12;;;;;;;78.57;35.10;;;4.00;99.90;;;;;;5094114;28;20078;-68
2022/01/26 11:34:39;;;;;;;81.00;33.67;;;4.00;99.90;;;;;;5094788;28;20380;-70
2022/01/26 11:37:08;;;;;;;80.13;34.30;;;4.20;99.90;;;;;;5094712;28;20056;-68
2022/01/26 11:45:08;;;;;;;77.15;33.40;;;4.10;99.90;;;;;;5074973;28;20408;-68
2022/01/26 11:47:36;;;;;;;75.90;33.53;;;4.10;99.90;;;;;;5074353;28;20048;-70
2022/01/26 11:50:20;;;;;;;75.85;33.80;;;4.10;99.90;;;;;;5074937;28;20063;-68
2022/01/26 11:53:03;;;;;;;74.40;33.33;;;4.10;99.90;;;;;;5078919;28;20485;-69
2022/01/26 11:55:36;;;;;;;74.15;33.15;;;4.10;99.90;;;;;;5076329;28;20074;-69
2022/01/26 11:58:15;;;;;;;77.32;32.78;;;4.10;99.90;;;;;;5091993;28;20139;-69
2022/01/26 12:00:54;;;;;;;79.78;33.58;;;4.20;99.90;;;;;;5093326;28;20090;-70
2022/01/26 12:03:24;;;;;;;74.97;33.63;;;4.20;99.90;;;;;;5094604;28;20079;-67
2022/01/26 12:05:52;;;;;;;71.70;33.72;;;4.20;99.90;;;;;;5076637;28;20044;-68
2022/01/26 12:08:53;;;;;;;75.00;32.80;;;4.20;99.90;;;;;;5081506;28;20155;-70
2022/01/26 12:11:21;;;;;;;74.53;33.05;;;4.20;99.90;;;;;;5072062;28;20061;-67
2022/01/26 12:13:50;;;;;;;72.93;32.70;;;4.30;99.90;;;;;;5073658;28;20048;-69
2022/01/26 12:16:22;;;;;;;73.53;32.67;;;4.20;99.90;;;;;;5088824;28;20621;-69
2022/01/26 12:19:34;;;;;;;74.05;32.30;;;4.30;99.90;;;;;;5075416;28;20052;-69
2022/01/26 12:43:43;;;;;;;68.43;29.48;;;4.20;99.90;;;;;;5092457;28;20443;-71
2022/01/26 12:46:14;;;;;;;66.20;30.85;;;4.40;99.90;;;;;;5094788;28;20106;-71
2022/01/26 12:48:42;;;;;;;68.72;31.33;;;4.30;99.90;;;;;;5089778;28;20056;-69
2022/01/26 12:51:09;;;;;;;69.63;31.00;;;4.40;99.90;;;;;;5073165;28;20048;-69
2022/01/26 12:53:37;;;;;;;64.00;31.35;;;4.40;99.90;;;;;;5085284;28;20052;-70
2022/01/26 12:56:18;;;;;;;65.35;30.15;;;4.40;99.90;;;;;;5106428;27;20120;-71
2022/01/26 12:59:27;;;;;;;71.97;29.98;;;4.10;99.90;;;;;;5073885;28;20052;-68
2022/01/26 13:02:06;;;;;;;71.65;31.65;;;4.00;99.90;;;;;;5048824;28;20056;-69
2022/01/26 13:04:57;;;;;;;63.53;29.55;;;3.90;99.90;;;;;;5089765;28;20056;-68
2022/01/26 13:07:43;;;;;;;60.55;27.67;;;4.40;99.90;;;;;;5107824;28;20483;-71
2022/01/26 13:10:28;;;;;;;60.53;27.60;;;4.40;99.90;;;;;;5106056;28;20048;-68
2022/01/26 13:13:18;;;;;;;64.68;28.83;;;4.40;99.90;;;;;;5075886;28;20115;-68
2022/01/26 13:15:53;;;;;;;67.35;29.52;;;4.30;99.90;;;;;;5072347;28;20074;-68
2022/01/26 13:18:43;;;;;;;70.70;31.27;;;4.30;99.90;;;;;;5083153;28;20053;-71
2022/01/26 13:21:43;;;;;;;71.18;30.75;;;4.30;99.90;;;;;;5090729;28;20059;-69
2022/01/26 13:27:19;;;;;;;65.57;30.48;;;4.30;99.90;;;;;;5072417;28;20056;-70
2022/01/26 13:32:37;;;;;;;71.68;30.63;;;4.30;99.90;;;;;;5081509;28;20527;-69
2022/01/26 13:35:15;;;;;;;67.97;30.73;;;4.30;99.90;;;;;;5077898;28;20048;-68
2022/01/26 13:50:35;;;;;;;60.10;28.13;;;4.50;99.90;;;;;;5092688;28;20138;-70
2022/01/26 13:53:07;;;;;;;61.58;27.55;;;4.40;99.90;;;;;;5090646;28;20561;-68
2022/01/26 13:55:47;;;;;;;58.80;27.30;;;4.50;99.90;;;;;;5084773;28;20056;-69
2022/01/26 14:01:00;;;;;;;63.03;27.95;;;4.50;99.90;;;;;;5090979;28;20052;-68
2022/01/26 14:03:29;;;;;;;63.03;27.75;;;4.60;99.90;;;;;;5126234;27;20074;-67
2022/01/26 14:05:55;;;;;;;64.03;27.88;;;4.50;99.90;;;;;;5125849;27;20131;-69
2022/01/26 14:08:21;;;;;;;61.17;27.65;;;4.50;99.90;;;;;;5091796;28;20123;-69
2022/01/26 14:10:49;;;;;;;58.40;28.70;;;4.50;99.90;;;;;;5091661;28;20084;-69
2022/01/26 14:13:19;;;;;;;58.05;26.85;;;4.50;99.90;;;;;;5091805;28;20372;-67
2022/01/26 14:15:48;;;;;;;61.05;27.45;;;4.40;99.90;;;;;;5092223;28;20410;-70
2022/01/26 14:20:50;;;;;;;58.70;26.98;;;4.50;99.90;;;;;;5092142;28;20048;-68
2022/01/26 14:25:48;;;;;;;60.95;27.48;;;4.60;99.90;;;;;;5090869;28;20055;-69
2022/01/26 14:28:17;;;;;;;64.80;30.42;;;4.60;99.90;;;;;;5092521;28;20107;-68
2022/01/26 14:36:24;;;;;;;52.60;27.55;;;4.60;99.90;;;;;;5091662;28;20492;-69
2022/01/26 15:48:49;;;;;;;61.28;27.02;;;4.70;99.90;;;;;;5074974;28;20400;-66
2022/01/26 16:07:39;;;;;;;60.53;27.27;;;4.70;99.90;;;;;;5079725;28;20109;-66
2022/01/26 16:21:02;;;;;;;57.38;26.13;;;4.40;99.90;;;;;;5078208;28;20088;-69
2022/01/26 16:37:42;;;;;;;54.30;25.95;;;4.60;99.90;;;;;;5076296;28;20377;-67
2022/01/26 17:27:36;;;;;;;50.97;25.02;;;;;;;;;;5071374;28;20056;-66
2022/01/26 18:05:38;;;;;;;48.28;24.75;;;;;;;;;;5078203;28;20493;-69
2022/01/26 18:13:06;;;;;;;46.22;23.48;;;;;;;;;;5071743;28;20146;-69
2022/01/26 18:32:05;;;;;;;44.40;23.85;;;;;;;;;;5085062;28;20044;-67
2022/01/26 18:50:55;;;;;;;44.00;22.60;;;;;;;;;;5077637;28;20056;-66
2022/01/26 18:53:26;;;;;;;43.55;22.13;;;;;;;;;;5091255;28;20052;-65
2022/01/26 18:55:52;;;;;;;45.95;22.92;;;;;;;;;;5080985;28;20052;-69
2022/01/26 18:58:20;;;;;;;46.72;23.80;;;;;;;;;;5091056;28;20040;-67
2022/01/26 19:00:46;;;;;;;46.28;24.23;;;;;;;;;;5091474;28;20167;-69
2022/01/26 19:03:15;;;;;;;45.88;24.33;;;;;;;;;;5091481;28;20078;-68
2022/01/26 19:05:44;;;;;;;46.00;23.02;;;;;;;;;;5070098;28;20502;-67
2022/01/26 19:08:10;;;;;;;46.03;22.15;;;;;;;;;;5054890;28;20048;-68
2022/01/26 19:10:38;;;;;;;42.25;21.83;;;;;;;;;;5081584;28;20533;-66
2022/01/26 19:13:07;;;;;;;40.50;22.35;;;;;;;;;;5077168;28;20514;-67
2022/01/26 19:15:35;;;;;;;42.80;22.42;;;;;;;;;;5071072;28;20127;-68
2022/01/26 19:18:12;;;;;;;41.72;22.63;;;;;;;;;;5054053;28;20087;-66
2022/01/26 19:20:58;;;;;;;41.90;22.05;;;;;;;;;;5073481;28;20110;-69
2022/01/26 19:23:43;;;;;;;46.47;21.95;;;;;;;;;;5054755;28;20052;-67
2022/01/26 19:26:19;;;;;;;50.42;23.02;;;;;;;;;;5086553;28;20059;-67